Time;durP1;ratioP1;P1;durP2;ratioP2;P2;SDS_P1;SDS_P2;PMS_P1;PMS_P2;Temp;Humidity;BMP_temperature;BMP_pressure;BME280_temperature;BME280_humidity;BME280_pressure;Samples;Min_cycle;Max_cycle;Signal;HPM_P1;HPM_P2
2022/04/22 00:02:14;;;;;;;17.42;12.65;;;359.20;1715.20;;;;;;5092713;28;20123;-62
2022/04/22 00:04:40;;;;;;;18.83;12.80;;;359.20;1740.80;;;;;;5093812;28;20492;-62
2022/04/22 00:07:06;;;;;;;19.58;13.15;;;359.20;1766.40;;;;;;5093980;28;20028;-62
2022/04/22 00:09:31;;;;;;;18.13;12.48;;;359.20;1766.40;;;;;;5093627;28;20043;-62
2022/04/22 00:11:57;;;;;;;19.52;12.52;;;359.10;1792.00;;;;;;5093588;28;20060;-62
2022/04/22 00:14:23;;;;;;;23.95;13.98;;;359.00;1792.00;;;;;;5092346;28;20059;-62
2022/04/22 00:16:48;;;;;;;19.20;14.32;;;358.90;1843.20;;;;;;5093586;28;20525;-61
2022/04/22 00:19:14;;;;;;;19.25;13.02;;;358.80;1894.40;;;;;;5095762;28;20055;-62
2022/04/22 00:21:43;;;;;;;20.65;13.85;;;358.60;1920.00;;;;;;5097768;28;20148;-62
2022/04/22 00:24:09;;;;;;;19.73;13.48;;;358.40;1971.20;;;;;;5097698;28;20099;-62
2022/04/22 00:26:35;;;;;;;20.60;14.43;;;358.40;1996.80;;;;;;5097132;28;20107;-62
2022/04/22 00:29:01;;;;;;;18.02;13.73;;;358.40;2022.40;;;;;;5097913;28;20032;-62
2022/04/22 00:31:27;;;;;;;22.45;13.88;;;358.40;2022.40;;;;;;5097640;28;20028;-62
2022/04/22 00:33:52;;;;;;;18.23;13.52;;;358.40;2022.40;;;;;;5097522;28;20027;-62
2022/04/22 00:36:18;;;;;;;18.25;13.43;;;358.40;2022.40;;;;;;5097596;28;20381;-62
2022/04/22 00:38:44;;;;;;;21.48;13.80;;;333.70;2048.00;;;;;;5097542;28;20393;-63
2022/04/22 00:41:10;;;;;;;18.17;14.30;;;358.40;2048.00;;;;;;5096073;28;20103;-62
2022/04/22 00:43:44;;;;;;;19.80;14.63;;;358.40;2048.00;;;;;;5097609;28;20465;-62
2022/04/22 00:46:10;;;;;;;24.27;15.45;;;358.40;2073.60;;;;;;5097612;28;20085;-62
2022/04/22 00:48:37;;;;;;;21.73;15.68;;;358.40;2073.60;;;;;;5097039;28;20056;-62
2022/04/22 00:51:07;;;;;;;19.33;14.65;;;358.40;2099.20;;;;;;5097445;28;20453;-62
2022/04/22 00:53:37;;;;;;;20.20;14.80;;;358.40;2099.20;;;;;;5097155;28;20020;-62
2022/04/22 00:56:05;;;;;;;24.63;14.73;;;358.40;2124.80;;;;;;5096917;28;20047;-63
2022/04/22 00:58:32;;;;;;;28.35;15.38;;;358.40;2150.40;;;;;;5097181;28;20048;-62
2022/04/22 01:00:58;;;;;;;23.65;14.50;;;333.70;2176.00;;;;;;5096943;28;20081;-61
2022/04/22 01:03:23;;;;;;;20.02;14.52;;;358.40;2176.00;;;;;;5096697;28;20035;-63
2022/04/22 01:11:19;;;;;;;19.23;15.57;;;333.70;2201.60;;;;;;5096899;28;20055;-62
2022/04/22 01:13:46;;;;;;;18.67;15.73;;;333.70;2227.20;;;;;;5096388;28;20035;-63
2022/04/22 01:16:11;;;;;;;19.30;14.75;;;333.70;2227.20;;;;;;5096756;28;20020;-63
2022/04/22 01:18:37;;;;;;;21.35;16.13;;;333.70;2252.80;;;;;;5096757;28;20546;-63
2022/04/22 01:21:03;;;;;;;19.98;14.88;;;333.70;2252.80;;;;;;5096347;28;20016;-62
2022/04/22 01:23:29;;;;;;;23.98;15.82;;;333.60;2252.80;;;;;;5096683;28;20035;-62
2022/04/22 01:25:57;;;;;;;19.98;14.65;;;333.60;2252.80;;;;;;5095450;28;20040;-62
2022/04/22 01:28:26;;;;;;;20.92;15.55;;;333.60;2252.80;;;;;;5096133;28;20021;-62
2022/04/22 01:30:58;;;;;;;19.15;15.48;;;333.60;2278.40;;;;;;5094958;28;20096;-62
2022/04/22 01:33:25;;;;;;;22.85;16.20;;;333.50;2278.40;;;;;;5096838;28;20099;-62
2022/04/22 01:35:50;;;;;;;22.65;16.63;;;333.60;2278.40;;;;;;5096453;28;20070;-62
2022/04/22 01:38:16;;;;;;;21.83;16.20;;;333.60;2304.00;;;;;;5095965;28;20422;-62
2022/04/22 01:40:42;;;;;;;20.92;16.00;;;333.60;2304.00;;;;;;5096484;28;20031;-62
2022/04/22 01:43:08;;;;;;;22.35;16.60;;;333.60;2304.00;;;;;;5096226;28;20035;-62
2022/04/22 01:45:34;;;;;;;22.58;16.13;;;333.60;2329.60;;;;;;5096363;28;20016;-62
2022/04/22 01:48:00;;;;;;;21.05;16.70;;;333.60;2329.60;;;;;;5096209;28;20073;-62
2022/04/22 01:50:26;;;;;;;22.50;16.85;;;333.50;2329.60;;;;;;5095843;28;20024;-62
2022/04/22 01:52:52;;;;;;;21.98;16.25;;;333.60;2329.60;;;;;;5096085;28;20031;-62
2022/04/22 01:55:18;;;;;;;23.58;17.73;;;333.60;2329.60;;;;;;5096147;28;20032;-62
2022/04/22 01:57:44;;;;;;;26.02;18.25;;;333.50;2329.60;;;;;;5095655;28;20083;-62
2022/04/22 02:00:10;;;;;;;24.65;17.13;;;333.50;2329.60;;;;;;5095892;28;20028;-62
2022/04/22 02:02:36;;;;;;;22.50;17.13;;;333.50;2329.60;;;;;;5095870;28;20486;-62
2022/04/22 02:05:03;;;;;;;22.73;16.60;;;333.50;2329.60;;;;;;5095938;28;20027;-62
2022/04/22 02:07:29;;;;;;;23.33;17.67;;;333.50;2329.60;;;;;;5095721;28;20382;-62
2022/04/22 02:09:55;;;;;;;27.10;20.05;;;333.50;2329.60;;;;;;5095836;28;20020;-62
2022/04/22 02:12:20;;;;;;;29.08;20.50;;;333.40;2329.60;;;;;;5095597;28;20024;-63
2022/04/22 02:14:46;;;;;;;25.73;19.13;;;333.40;2329.60;;;;;;5095986;28;20133;-62
2022/04/22 02:17:12;;;;;;;25.77;18.52;;;333.40;2329.60;;;;;;5095634;28;20039;-62
2022/04/22 02:19:40;;;;;;;24.92;17.75;;;333.40;2329.60;;;;;;5095465;28;20031;-62
2022/04/22 02:22:05;;;;;;;23.05;16.77;;;333.40;2329.60;;;;;;5095589;28;20081;-63
2022/04/22 02:24:31;;;;;;;32.65;17.85;;;333.30;2329.60;;;;;;5095542;28;20023;-62
2022/04/22 02:29:41;;;;;;;25.23;17.27;;;333.40;2329.60;;;;;;5095573;28;20477;-63
2022/04/22 02:32:08;;;;;;;24.92;17.50;;;333.30;2329.60;;;;;;5095396;28;20028;-62
2022/04/22 02:34:34;;;;;;;27.98;19.20;;;333.30;2329.60;;;;;;5095085;28;20499;-63
2022/04/22 02:36:59;;;;;;;24.08;17.45;;;333.30;2329.60;;;;;;5093783;28;20115;-62
2022/04/22 02:39:25;;;;;;;21.60;15.02;;;333.30;2329.60;;;;;;5095335;28;20154;-62
2022/04/22 02:47:19;;;;;;;27.23;17.05;;;333.30;2329.60;;;;;;5095036;28;20039;-62
2022/04/22 02:49:45;;;;;;;27.75;18.92;;;333.30;2329.60;;;;;;5095207;28;20087;-63
2022/04/22 02:52:12;;;;;;;27.13;17.77;;;333.30;2329.60;;;;;;5094895;28;20056;-62
2022/04/22 02:54:38;;;;;;;26.65;18.73;;;333.20;2329.60;;;;;;5094893;28;20020;-62
2022/04/22 02:57:04;;;;;;;22.70;16.67;;;333.20;2329.60;;;;;;5093346;28;20048;-62
2022/04/22 02:59:31;;;;;;;22.73;16.00;;;333.20;2329.60;;;;;;5094629;28;20027;-63
2022/04/22 03:01:57;;;;;;;22.05;17.10;;;333.20;2329.60;;;;;;5094796;28;20027;-62
2022/04/22 03:04:24;;;;;;;24.92;17.30;;;333.20;2329.60;;;;;;5094815;28;20027;-62
2022/04/22 03:06:50;;;;;;;27.52;18.23;;;333.20;2329.60;;;;;;5093370;28;20020;-62
2022/04/22 03:09:16;;;;;;;28.55;19.10;;;333.20;2329.60;;;;;;5094575;28;20028;-63
2022/04/22 03:11:42;;;;;;;28.10;17.73;;;333.20;2329.60;;;;;;5094696;28;20108;-62
2022/04/22 03:14:08;;;;;;;20.23;17.05;;;333.20;2329.60;;;;;;5094620;28;20103;-62
2022/04/22 03:16:35;;;;;;;23.58;17.30;;;333.30;2329.60;;;;;;5094372;28;20073;-62
2022/04/22 03:19:00;;;;;;;27.70;17.38;;;333.30;2329.60;;;;;;5094485;28;20477;-62
2022/04/22 03:21:26;;;;;;;25.85;17.50;;;333.20;2329.60;;;;;;5094428;28;20051;-62
2022/04/22 03:23:52;;;;;;;24.88;17.92;;;333.20;2329.60;;;;;;5094273;28;20028;-62
2022/04/22 03:26:18;;;;;;;24.90;17.33;;;333.10;2329.60;;;;;;5094502;28;20359;-61
2022/04/22 03:28:45;;;;;;;27.73;18.42;;;333.10;2329.60;;;;;;5094352;28;20095;-62
2022/04/22 03:31:10;;;;;;;26.52;18.23;;;333.20;2329.60;;;;;;5094623;28;20107;-63
2022/04/22 03:33:36;;;;;;;24.20;17.45;;;333.20;2329.60;;;;;;5094252;28;20051;-62
2022/04/22 03:36:02;;;;;;;23.70;17.35;;;333.20;2329.60;;;;;;5093017;28;20060;-62
2022/04/22 03:38:29;;;;;;;22.13;15.93;;;333.20;2329.60;;;;;;5094175;28;20024;-61
2022/04/22 03:40:55;;;;;;;25.52;16.27;;;333.30;2329.60;;;;;;5094209;28;20101;-62
2022/04/22 03:43:23;;;;;;;25.02;17.67;;;333.30;2329.60;;;;;;5094117;28;20465;-62
2022/04/22 03:45:48;;;;;;;30.27;17.40;;;333.30;2329.60;;;;;;5094011;28;20020;-62
2022/04/22 03:48:15;;;;;;;24.63;17.00;;;333.30;2329.60;;;;;;5093981;28;20420;-62
2022/04/22 03:50:41;;;;;;;25.60;16.83;;;333.30;2329.60;;;;;;5092516;28;20127;-62
2022/04/22 03:53:11;;;;;;;24.52;16.48;;;333.30;2329.60;;;;;;5093904;28;20016;-62
2022/04/22 03:55:41;;;;;;;23.85;16.65;;;333.30;2329.60;;;;;;5093915;28;20099;-63
2022/04/22 03:58:13;;;;;;;20.58;15.32;;;333.30;2329.60;;;;;;5093839;28;20470;-62
2022/04/22 04:00:49;;;;;;;21.80;15.10;;;333.30;2329.60;;;;;;5093871;28;20089;-62
2022/04/22 04:03:23;;;;;;;22.02;14.93;;;333.30;2329.60;;;;;;5093829;28;20024;-62
2022/04/22 04:05:51;;;;;;;21.77;14.88;;;333.30;2329.60;;;;;;5094027;28;20021;-62
2022/04/22 04:08:18;;;;;;;22.23;14.52;;;333.30;2329.60;;;;;;5093784;28;20111;-63
2022/04/22 04:16:13;;;;;;;21.42;15.23;;;333.30;2329.60;;;;;;5094115;28;19911;-62
2022/04/22 04:18:39;;;;;;;22.63;15.98;;;333.30;2329.60;;;;;;5093743;28;20028;-63
2022/04/22 04:23:52;;;;;;;19.73;14.90;;;333.20;2329.60;;;;;;5093715;28;20495;-62
2022/04/22 04:26:19;;;;;;;20.73;13.98;;;333.20;2329.60;;;;;;5093652;28;20032;-62
2022/04/22 04:28:47;;;;;;;24.15;15.38;;;333.20;2329.60;;;;;;5093493;28;20030;-62
2022/04/22 04:31:13;;;;;;;23.73;15.13;;;333.10;2329.60;;;;;;5093581;28;20020;-62
2022/04/22 04:33:40;;;;;;;24.85;14.88;;;333.20;2329.60;;;;;;5093710;28;20020;-62
2022/04/22 04:36:09;;;;;;;20.95;14.77;;;333.20;2329.60;;;;;;5093499;28;20457;-62
2022/04/22 04:38:39;;;;;;;25.40;14.98;;;333.20;2329.60;;;;;;5093627;28;20032;-62
2022/04/22 04:41:09;;;;;;;23.95;14.18;;;333.20;2329.60;;;;;;5093586;28;20484;-62
2022/04/22 04:43:35;;;;;;;24.27;13.52;;;333.20;2329.60;;;;;;5093622;28;20035;-62
2022/04/22 04:46:05;;;;;;;17.98;12.60;;;333.10;2329.60;;;;;;5092179;28;20093;-62
2022/04/22 04:48:31;;;;;;;21.00;13.00;;;333.10;2329.60;;;;;;5093753;28;20020;-62
2022/04/22 04:50:57;;;;;;;19.98;12.80;;;333.10;2329.60;;;;;;5093506;28;20081;-62
2022/04/22 04:53:25;;;;;;;18.85;13.05;;;333.00;2329.60;;;;;;5093376;28;20035;-62
2022/04/22 04:55:52;;;;;;;15.82;12.68;;;333.00;2329.60;;;;;;5091954;28;20032;-62
2022/04/22 04:58:21;;;;;;;19.45;12.48;;;333.00;2329.60;;;;;;5093475;28;20039;-62
2022/04/22 05:00:47;;;;;;;24.00;13.07;;;333.00;2329.60;;;;;;5093329;28;20474;-62
2022/04/22 05:03:13;;;;;;;17.55;12.27;;;333.00;2329.60;;;;;;5093399;28;20489;-62
2022/04/22 05:05:38;;;;;;;15.63;12.18;;;333.00;2329.60;;;;;;5095631;28;20040;-62
2022/04/22 05:08:06;;;;;;;20.52;12.50;;;333.00;2329.60;;;;;;5097084;28;20032;-62
2022/04/22 05:10:33;;;;;;;18.85;10.63;;;333.00;2329.60;;;;;;5096994;28;20419;-62
2022/04/22 05:12:59;;;;;;;12.32;8.73;;;333.00;2329.60;;;;;;5097071;28;20023;-62
2022/04/22 05:15:26;;;;;;;15.45;9.70;;;333.00;2329.60;;;;;;5096718;28;20030;-62
2022/04/22 05:17:54;;;;;;;15.73;9.60;;;333.00;2329.60;;;;;;5096943;28;20390;-62
2022/04/22 05:20:25;;;;;;;13.70;8.38;;;333.00;2329.60;;;;;;5096825;28;20020;-62
2022/04/22 05:22:51;;;;;;;13.52;7.55;;;333.10;2329.60;;;;;;5096611;28;20049;-62
2022/04/22 05:25:17;;;;;;;13.05;8.85;;;333.00;2329.60;;;;;;5096669;28;20016;-62
2022/04/22 05:27:43;;;;;;;16.00;8.60;;;333.00;2329.60;;;;;;5096795;28;20158;-62
2022/04/22 05:32:55;;;;;;;26.17;12.57;;;333.10;2329.60;;;;;;5097142;28;20492;-62
2022/04/22 05:35:22;;;;;;;20.63;11.00;;;333.10;2329.60;;;;;;5096419;28;20024;-62
2022/04/22 05:38:02;;;;;;;30.02;12.10;;;333.10;2329.60;;;;;;5096381;28;20073;-62
2022/04/22 05:40:33;;;;;;;41.08;17.08;;;333.10;2329.60;;;;;;5096235;28;20016;-62
2022/04/22 05:42:59;;;;;;;37.28;16.80;;;333.20;2329.60;;;;;;5096307;28;20469;-63
2022/04/22 05:45:27;;;;;;;18.05;9.25;;;333.20;2329.60;;;;;;5095065;28;20024;-63
2022/04/22 05:47:53;;;;;;;23.95;12.40;;;333.20;2329.60;;;;;;5095325;28;20020;-62
2022/04/22 05:50:21;;;;;;;47.85;18.10;;;333.30;2329.60;;;;;;5095376;28;20327;-62
2022/04/22 05:52:47;;;;;;;23.52;10.98;;;333.30;2329.60;;;;;;5095364;28;20048;-62
2022/04/22 05:55:17;;;;;;;13.23;6.32;;;333.30;2329.60;;;;;;5094788;28;20028;-61
2022/04/22 05:57:45;;;;;;;11.38;5.85;;;333.40;2329.60;;;;;;5095259;28;20048;-61
2022/04/22 06:00:14;;;;;;;10.13;5.93;;;333.40;2329.60;;;;;;5092455;28;20020;-62
2022/04/22 06:02:41;;;;;;;15.32;7.20;;;333.50;2329.60;;;;;;5095175;28;20485;-61
2022/04/22 06:05:10;;;;;;;14.88;7.57;;;333.50;2329.60;;;;;;5095462;28;20039;-61
2022/04/22 06:07:37;;;;;;;14.68;8.60;;;333.50;2329.60;;;;;;5094686;28;20032;-62
2022/04/22 06:12:48;;;;;;;16.17;7.38;;;333.60;2329.60;;;;;;5094108;28;20031;-62
2022/04/22 06:15:14;;;;;;;15.63;6.75;;;333.60;2329.60;;;;;;5093735;28;20023;-62
2022/04/22 06:17:40;;;;;;;10.90;6.78;;;333.60;2329.60;;;;;;5094436;28;20032;-63
2022/04/22 06:20:06;;;;;;;12.43;6.00;;;333.70;2329.60;;;;;;5095467;28;20047;-62
2022/04/22 06:22:32;;;;;;;16.15;8.02;;;333.70;2329.60;;;;;;5095413;28;20056;-62
2022/04/22 06:24:58;;;;;;;25.60;9.63;;;358.40;2329.60;;;;;;5094809;28;20064;-62
2022/04/22 06:27:28;;;;;;;17.45;8.82;;;358.50;2329.60;;;;;;5095146;28;20048;-62
2022/04/22 06:29:55;;;;;;;23.80;11.15;;;358.50;2329.60;;;;;;5094249;28;20477;-63
2022/04/22 06:32:23;;;;;;;12.98;5.78;;;358.60;2329.60;;;;;;5095190;28;20062;-66
2022/04/22 06:34:52;;;;;;;17.42;6.55;;;358.70;2329.60;;;;;;5095449;28;20020;-64
2022/04/22 06:37:18;;;;;;;15.77;7.70;;;358.80;2329.60;;;;;;5094905;28;20027;-61
2022/04/22 06:47:59;;;;;;;11.95;5.47;;;359.30;2329.60;;;;;;5095189;28;20050;-62
2022/04/22 06:50:25;;;;;;;12.45;6.57;;;384.00;2329.60;;;;;;5094305;28;20039;-61
2022/04/22 06:52:51;;;;;;;14.63;6.78;;;384.10;2329.60;;;;;;5095280;28;20032;-62
2022/04/22 06:55:18;;;;;;;15.07;7.88;;;384.30;2329.60;;;;;;5094809;28;20028;-62
2022/04/22 06:57:51;;;;;;;12.68;6.75;;;384.40;2329.60;;;;;;5094414;28;20501;-62
2022/04/22 07:00:18;;;;;;;11.70;7.05;;;384.50;2329.60;;;;;;5095036;28;20418;-62
2022/04/22 07:02:45;;;;;;;9.30;5.82;;;384.50;2329.60;;;;;;5094748;28;20032;-62
2022/04/22 07:05:12;;;;;;;13.70;6.38;;;384.60;2329.60;;;;;;5094787;28;20024;-62
2022/04/22 07:07:38;;;;;;;12.88;7.28;;;384.70;2329.60;;;;;;5093397;28;20386;-62
2022/04/22 07:10:05;;;;;;;13.35;6.45;;;384.80;2329.60;;;;;;5094061;28;20070;-62
2022/04/22 07:12:32;;;;;;;9.82;6.13;;;409.60;2355.20;;;;;;5092961;28;20031;-62
2022/04/22 07:15:05;;;;;;;10.65;6.28;;;409.70;2329.60;;;;;;5094539;28;20448;-62
2022/04/22 07:17:34;;;;;;;15.23;7.30;;;409.70;2304.00;;;;;;5094531;28;20028;-62
2022/04/22 07:20:09;;;;;;;11.38;6.10;;;409.80;2278.40;;;;;;5094473;28;20028;-62
2022/04/22 07:22:39;;;;;;;13.35;6.93;;;410.00;2278.40;;;;;;5094352;28;20030;-62
2022/04/22 07:25:06;;;;;;;12.18;6.53;;;410.10;2304.00;;;;;;5094176;28;20540;-62
2022/04/22 07:27:38;;;;;;;13.27;7.40;;;410.20;2252.80;;;;;;5093808;28;20035;-62
2022/04/22 07:30:07;;;;;;;16.00;7.20;;;410.10;2201.60;;;;;;5094249;28;20035;-62
2022/04/22 07:32:37;;;;;;;8.52;6.00;;;410.10;2201.60;;;;;;5094317;28;20065;-62
2022/04/22 07:35:08;;;;;;;14.75;6.68;;;410.30;2201.60;;;;;;5093867;28;20081;-62
2022/04/22 07:37:35;;;;;;;13.75;6.10;;;410.40;2176.00;;;;;;5094046;28;20031;-62
2022/04/22 07:40:01;;;;;;;19.52;8.00;;;410.50;2124.80;;;;;;5093803;28;20082;-61
2022/04/22 07:42:29;;;;;;;28.67;11.48;;;435.30;2124.80;;;;;;5093745;28;20031;-62
2022/04/22 07:47:44;;;;;;;17.10;8.82;;;435.60;2099.20;;;;;;5094485;28;20035;-62
2022/04/22 07:50:10;;;;;;;9.63;5.95;;;435.70;2073.60;;;;;;5093719;28;20027;-62
2022/04/22 07:52:36;;;;;;;14.00;6.72;;;435.80;2022.40;;;;;;5092692;28;20032;-62
2022/04/22 07:55:03;;;;;;;14.38;6.65;;;435.90;2022.40;;;;;;5093923;28;20347;-62
2022/04/22 07:57:30;;;;;;;18.38;7.00;;;436.00;1971.20;;;;;;5093677;28;20058;-62
2022/04/22 07:59:56;;;;;;;15.85;5.80;;;436.10;1971.20;;;;;;5093990;28;20423;-62
2022/04/22 08:02:24;;;;;;;9.18;4.85;;;460.80;1971.20;;;;;;5093430;28;20024;-62
2022/04/22 08:04:50;;;;;;;17.42;6.20;;;460.90;1945.60;;;;;;5094052;28;20103;-63
2022/04/22 08:07:16;;;;;;;15.70;6.32;;;460.90;1945.60;;;;;;5094014;28;20373;-63
2022/04/22 08:09:44;;;;;;;12.23;7.40;;;460.90;1945.60;;;;;;5093849;28;20016;-62
2022/04/22 08:12:12;;;;;;;18.92;7.25;;;460.90;1945.60;;;;;;5092810;28;20389;-62
2022/04/22 08:14:38;;;;;;;11.95;6.38;;;461.00;1971.20;;;;;;5093658;28;20016;-62
2022/04/22 08:17:04;;;;;;;13.63;7.03;;;461.00;1945.60;;;;;;5093684;28;20182;-62
2022/04/22 08:19:30;;;;;;;10.70;6.65;;;461.10;1971.20;;;;;;5092077;28;20126;-62
2022/04/22 08:21:57;;;;;;;9.77;6.00;;;461.00;1945.60;;;;;;5093716;28;20115;-62
2022/04/22 08:24:23;;;;;;;16.73;7.18;;;461.00;1971.20;;;;;;5093491;28;20024;-62
2022/04/22 08:26:49;;;;;;;14.57;7.45;;;461.00;1971.20;;;;;;5093660;28;20029;-63
2022/04/22 08:29:15;;;;;;;23.80;7.18;;;461.00;1971.20;;;;;;5094332;28;20036;-62
2022/04/22 08:31:41;;;;;;;14.05;6.55;;;460.90;1971.20;;;;;;5093523;28;20380;-62
2022/04/22 08:34:07;;;;;;;16.30;7.43;;;460.90;1971.20;;;;;;5093476;28;20032;-63
2022/04/22 08:36:33;;;;;;;16.75;6.38;;;460.90;1971.20;;;;;;5093492;28;20115;-62
2022/04/22 08:38:59;;;;;;;9.50;4.88;;;460.90;1920.00;;;;;;5094301;28;20058;-63
2022/04/22 08:41:26;;;;;;;8.68;4.70;;;460.90;1843.20;;;;;;5097026;28;20039;-62
2022/04/22 08:43:56;;;;;;;11.63;4.60;;;460.90;1843.20;;;;;;5097634;28;20016;-63
2022/04/22 08:52:16;;;;;;;13.38;6.40;;;461.10;1817.60;;;;;;5097744;28;20089;-62
2022/04/22 08:54:45;;;;;;;13.02;5.80;;;461.10;1817.60;;;;;;5097145;28;20032;-62
2022/04/22 08:57:12;;;;;;;10.63;5.90;;;461.20;1817.60;;;;;;5096753;28;20048;-61
2022/04/22 08:59:38;;;;;;;21.20;7.68;;;461.20;1817.60;;;;;;5096952;28;20477;-61
2022/04/22 09:02:04;;;;;;;14.52;6.40;;;461.30;1766.40;;;;;;5096446;28;20122;-61
2022/04/22 09:04:30;;;;;;;12.73;6.38;;;461.30;1766.40;;;;;;5096773;28;20103;-62
2022/04/22 09:06:57;;;;;;;12.77;5.40;;;461.40;1740.80;;;;;;5097084;28;20060;-62
2022/04/22 09:09:24;;;;;;;11.95;5.60;;;461.40;1740.80;;;;;;5096840;28;20103;-62
2022/04/22 09:11:51;;;;;;;14.15;5.38;;;461.50;1766.40;;;;;;5097023;28;20040;-62
2022/04/22 09:14:20;;;;;;;23.25;6.72;;;461.60;1766.40;;;;;;5096691;28;20027;-61
2022/04/22 09:16:45;;;;;;;12.27;3.95;;;461.60;1715.20;;;;;;5096629;28;20032;-62
2022/04/22 09:19:12;;;;;;;7.38;3.83;;;461.50;1664.00;;;;;;5096755;28;20028;-63
2022/04/22 09:21:38;;;;;;;9.85;4.57;;;461.60;1664.00;;;;;;5096629;28;20024;-62
2022/04/22 09:24:13;;;;;;;17.38;6.75;;;461.60;1664.00;;;;;;5096571;28;20035;-61
2022/04/22 09:26:39;;;;;;;25.02;7.15;;;461.60;1664.00;;;;;;5096270;28;20099;-61
2022/04/22 09:29:06;;;;;;;10.93;5.20;;;461.60;1664.00;;;;;;5096686;28;20063;-62
2022/04/22 09:31:52;;;;;;;15.27;4.82;;;461.60;1664.00;;;;;;5095195;28;20357;-63
2022/04/22 09:34:36;;;;;;;19.55;5.75;;;461.60;1664.00;;;;;;5096281;28;20023;-63
2022/04/22 09:42:47;;;;;;;15.95;4.55;;;486.70;1638.40;;;;;;5096607;28;20115;-63
2022/04/22 09:45:14;;;;;;;16.58;5.35;;;486.90;1612.80;;;;;;5095885;28;20073;-62
2022/04/22 09:47:40;;;;;;;10.95;4.43;;;487.10;1612.80;;;;;;5095679;28;20049;-63
2022/04/22 09:50:11;;;;;;;12.10;5.07;;;487.30;1587.20;;;;;;5095755;28;20024;-63
2022/04/22 09:52:43;;;;;;;13.23;4.68;;;512.10;1561.60;;;;;;5096109;28;20464;-62
2022/04/22 09:55:10;;;;;;;12.10;4.72;;;512.50;1536.00;;;;;;5095810;28;20028;-63
2022/04/22 09:57:55;;;;;;;10.45;4.97;;;512.80;1510.40;;;;;;5094506;28;20469;-63
2022/04/22 10:00:29;;;;;;;6.75;4.20;;;512.80;1484.80;;;;;;5095705;28;20496;-62
2022/04/22 10:02:55;;;;;;;11.60;4.72;;;537.60;1510.40;;;;;;5096085;28;20103;-63
2022/04/22 10:05:26;;;;;;;13.43;4.97;;;537.80;1510.40;;;;;;5096130;28;20478;-63
2022/04/22 10:07:53;;;;;;;13.30;4.57;;;538.10;1510.40;;;;;;5095715;28;20028;-63
2022/04/22 10:10:39;;;;;;;11.15;4.05;;;538.40;1459.20;;;;;;5095493;28;20027;-61
2022/04/22 10:13:12;;;;;;;11.90;3.88;;;538.50;1459.20;;;;;;5094894;28;20105;-63
2022/04/22 10:15:39;;;;;;;12.48;3.75;;;563.20;1459.20;;;;;;5093518;28;20028;-63
2022/04/22 10:18:07;;;;;;;12.88;3.88;;;563.20;1433.60;;;;;;5095138;28;20085;-64
2022/04/22 10:20:33;;;;;;;10.27;3.97;;;563.20;1408.00;;;;;;5093686;28;20055;-62
2022/04/22 10:22:59;;;;;;;10.77;4.53;;;563.30;1408.00;;;;;;5090196;28;20071;-61
2022/04/22 10:25:29;;;;;;;15.50;4.78;;;563.40;1433.60;;;;;;5094008;28;20026;-62
2022/04/22 10:27:57;;;;;;;14.48;4.20;;;563.40;1433.60;;;;;;5094089;28;20036;-61
2022/04/22 10:30:24;;;;;;;11.95;4.13;;;563.40;1408.00;;;;;;5093344;28;20024;-63
2022/04/22 10:32:51;;;;;;;9.23;4.50;;;563.50;1433.60;;;;;;5093634;28;20031;-62
2022/04/22 10:35:21;;;;;;;9.93;4.13;;;563.60;1408.00;;;;;;5093778;28;20016;-62
2022/04/22 10:37:49;;;;;;;10.85;4.20;;;563.50;1408.00;;;;;;5093427;28;20036;-61
2022/04/22 10:40:18;;;;;;;13.93;5.03;;;563.60;1408.00;;;;;;5093940;28;20031;-63
2022/04/22 10:42:44;;;;;;;12.20;4.93;;;563.70;1408.00;;;;;;5093814;28;20571;-62
2022/04/22 10:47:55;;;;;;;12.13;4.90;;;564.00;1408.00;;;;;;5093365;28;20096;-63
2022/04/22 10:50:31;;;;;;;11.02;4.53;;;564.10;1382.40;;;;;;5093700;28;20031;-62
2022/04/22 10:53:09;;;;;;;14.98;5.20;;;588.80;1382.40;;;;;;5093543;28;20030;-63
2022/04/22 10:55:40;;;;;;;11.95;3.45;;;588.90;1382.40;;;;;;5093386;28;20030;-61
2022/04/22 10:58:20;;;;;;;17.92;3.80;;;588.90;1356.80;;;;;;5090891;28;20040;-62
2022/04/22 11:00:54;;;;;;;10.07;4.60;;;588.80;1356.80;;;;;;5090675;28;20035;-63
2022/04/22 11:03:29;;;;;;;6.53;3.72;;;588.80;1331.20;;;;;;5092638;28;20554;-63
2022/04/22 11:05:57;;;;;;;10.27;4.40;;;588.90;1331.20;;;;;;5093325;28;20035;-62
2022/04/22 11:08:35;;;;;;;13.50;3.80;;;589.00;1356.80;;;;;;5091834;28;20027;-62
2022/04/22 11:11:08;;;;;;;22.08;4.75;;;589.10;1305.60;;;;;;5093998;28;20412;-62
2022/04/22 11:13:40;;;;;;;10.95;3.80;;;589.30;1331.20;;;;;;5091995;28;20036;-62
2022/04/22 11:16:32;;;;;;;22.85;3.95;;;589.60;1356.80;;;;;;5093549;28;20024;-62
2022/04/22 11:19:19;;;;;;;13.40;3.63;;;589.70;1305.60;;;;;;5092376;28;20070;-62
2022/04/22 11:21:52;;;;;;;19.02;4.93;;;614.40;1305.60;;;;;;5092968;28;20024;-61
2022/04/22 11:24:25;;;;;;;25.17;5.10;;;614.40;1254.40;;;;;;5084064;28;20115;-62
2022/04/22 11:26:53;;;;;;;23.90;5.00;;;614.50;1228.80;;;;;;5093138;28;20381;-62
2022/04/22 11:29:19;;;;;;;23.23;4.78;;;614.70;1228.80;;;;;;5093411;28;20431;-63
2022/04/22 11:32:16;;;;;;;23.58;5.47;;;614.70;1203.20;;;;;;5094520;28;20092;-60
2022/04/22 11:35:01;;;;;;;15.52;3.70;;;614.60;1228.80;;;;;;5091766;28;20042;-62
2022/04/22 11:37:26;;;;;;;17.40;3.13;;;614.60;1228.80;;;;;;5093432;28;20032;-60
2022/04/22 11:39:52;;;;;;;16.63;3.88;;;614.80;1203.20;;;;;;5093356;28;20020;-60
2022/04/22 11:42:19;;;;;;;34.35;3.92;;;614.90;1203.20;;;;;;5093441;28;20069;-61
2022/04/22 11:45:00;;;;;;;18.60;4.13;;;614.90;1177.60;;;;;;5093423;28;20043;-61
2022/04/22 11:47:26;;;;;;;12.85;3.75;;;614.90;1177.60;;;;;;5092598;28;20028;-61
2022/04/22 11:49:51;;;;;;;17.27;3.38;;;614.80;1177.60;;;;;;5092173;28;20023;-61
2022/04/22 11:52:20;;;;;;;9.55;3.03;;;614.80;1203.20;;;;;;5092348;28;20050;-60
2022/04/22 11:54:46;;;;;;;12.05;3.78;;;614.80;1177.60;;;;;;5089981;28;20043;-60
2022/04/22 11:57:12;;;;;;;10.70;4.13;;;614.90;1152.00;;;;;;5092214;28;20098;-62
2022/04/22 12:05:31;;;;;;;16.23;4.75;;;614.80;1177.60;;;;;;5092092;28;20032;-61
2022/04/22 12:05:34;;;;;;;18.63;4.20;;;614.80;1177.60;;;;;;5094215;28;20058;-63
2022/04/22 12:08:05;;;;;;;16.02;3.70;;;614.80;1177.60;;;;;;5093648;28;20103;-65
2022/04/22 12:10:33;;;;;;;21.92;4.10;;;614.90;1177.60;;;;;;5093752;28;20103;-61
2022/04/22 12:13:04;;;;;;;10.80;3.83;;;614.80;1152.00;;;;;;5093510;28;20036;-62
2022/04/22 12:15:30;;;;;;;17.48;3.38;;;614.70;1152.00;;;;;;5097844;28;20466;-62
2022/04/22 12:17:57;;;;;;;21.10;3.92;;;614.70;1152.00;;;;;;5097839;28;20040;-62
2022/04/22 12:20:25;;;;;;;16.55;4.03;;;614.60;1177.60;;;;;;5097517;28;20058;-65
2022/04/22 12:22:52;;;;;;;11.02;3.67;;;614.60;1177.60;;;;;;5097800;28;20066;-63
2022/04/22 12:25:20;;;;;;;11.98;3.75;;;614.60;1177.60;;;;;;5097559;28;20468;-63
2022/04/22 12:28:08;;;;;;;13.15;4.60;;;614.80;1152.00;;;;;;5097920;28;20415;-63
2022/04/22 12:30:38;;;;;;;12.52;3.67;;;614.80;1152.00;;;;;;5097658;28;20020;-63
2022/04/22 12:33:06;;;;;;;21.85;3.67;;;614.90;1152.00;;;;;;5097472;28;20221;-62
2022/04/22 12:35:32;;;;;;;10.40;3.65;;;615.20;1152.00;;;;;;5097706;28;20020;-63
2022/04/22 12:38:04;;;;;;;23.30;3.67;;;615.20;1126.40;;;;;;5097439;28;20043;-63
2022/04/22 12:40:44;;;;;;;19.98;3.97;;;615.20;1100.80;;;;;;5097263;28;20027;-63
2022/04/22 12:43:31;;;;;;;23.42;4.63;;;640.00;1100.80;;;;;;5097430;28;20024;-63
2022/04/22 12:52:17;;;;;;;11.05;3.33;;;615.20;1075.20;;;;;;5054920;28;20099;-63
2022/04/22 12:54:48;;;;;;;65.28;5.10;;;615.00;1100.80;;;;;;5038072;28;20029;-63
2022/04/22 12:57:23;;;;;;;28.25;3.90;;;614.90;1100.80;;;;;;5037598;28;20549;-63
2022/04/22 13:00:04;;;;;;;19.98;4.30;;;614.60;1126.40;;;;;;5054475;28;20060;-63
2022/04/22 13:02:34;;;;;;;13.88;3.42;;;614.50;1126.40;;;;;;5054809;28;20059;-63
2022/04/22 13:05:03;;;;;;;12.80;3.08;;;614.40;1126.40;;;;;;5054518;28;20112;-63
2022/04/22 13:07:42;;;;;;;10.95;3.47;;;589.60;1152.00;;;;;;5054583;28;20041;-62
2022/04/22 13:10:12;;;;;;;16.00;3.08;;;589.60;1152.00;;;;;;5054651;28;20174;-64
2022/04/22 13:12:41;;;;;;;22.48;4.43;;;589.60;1152.00;;;;;;5054522;28;20029;-62